createdAt,value
2022-11-24T14:48:29.496Z,-1.60
2022-11-24T14:51:23.378Z,-1.61
2022-11-24T14:54:29.028Z,-1.65
2022-11-24T14:57:26.912Z,-1.68
2022-11-24T15:00:24.867Z,-1.70
2022-11-24T15:03:18.740Z,-1.70
2022-11-24T15:06:19.866Z,-1.71
2022-11-24T15:09:19.719Z,-1.73
2022-11-24T15:12:12.830Z,-1.72
2022-11-24T15:15:15.698Z,-1.68
2022-11-24T15:18:05.887Z,-1.69
2022-11-24T15:20:53.935Z,-1.68
2022-11-24T15:23:42.959Z,-1.71
2022-11-24T15:26:36.738Z,-1.73
2022-11-24T15:29:27.788Z,-1.72
2022-11-24T15:32:16.670Z,-1.67
2022-11-24T15:35:04.682Z,-1.56
2022-11-24T15:37:52.548Z,-1.64
2022-11-24T15:40:42.523Z,-1.69
2022-11-24T15:43:42.748Z,-1.67
2022-11-24T15:46:37.833Z,-1.68
2022-11-24T15:49:25.642Z,-1.68
2022-11-24T15:52:17.509Z,-1.69
2022-11-24T15:55:05.870Z,-1.75
2022-11-24T15:57:53.536Z,-1.75
2022-11-24T16:00:42.358Z,-1.74
2022-11-24T16:03:47.543Z,-1.79
2022-11-24T16:06:36.041Z,-1.89
2022-11-24T16:09:23.646Z,-1.91
2022-11-24T16:12:11.255Z,-1.92
2022-11-24T16:14:58.793Z,-1.95
2022-11-24T16:17:46.670Z,-1.92
2022-11-24T16:20:36.135Z,-1.91
2022-11-24T16:23:23.978Z,-1.93
2022-11-24T16:26:11.583Z,-1.97
2022-11-24T16:28:59.211Z,-2.01
2022-11-24T16:31:47.653Z,-1.99
2022-11-24T16:34:35.438Z,-1.97
2022-11-24T16:37:23.256Z,-1.95
2022-11-24T16:40:19.866Z,-1.95
2022-11-24T16:43:07.245Z,-1.96
2022-11-24T16:46:28.954Z,-1.95
2022-11-24T16:49:17.080Z,-2.02
2022-11-24T16:52:05.062Z,-2.08
2022-11-24T16:54:52.661Z,-2.16
2022-11-24T16:57:40.599Z,-2.28
2022-11-24T17:00:28.360Z,-2.32
2022-11-24T17:03:16.042Z,-2.35
2022-11-24T17:06:05.613Z,-2.35
2022-11-24T17:08:55.618Z,-2.38
2022-11-24T17:11:43.242Z,-2.37
2022-11-24T17:14:30.898Z,-2.31
2022-11-24T17:17:18.517Z,-2.32
2022-11-24T17:20:06.926Z,-2.29
2022-11-24T17:22:54.613Z,-2.25
2022-11-24T17:25:42.182Z,-2.29
2022-11-24T17:28:30.228Z,-2.27
2022-11-24T17:31:35.782Z,-2.21
2022-11-24T17:34:23.569Z,-2.23
2022-11-24T17:37:11.157Z,-2.22
2022-11-24T17:40:26.962Z,-2.25
2022-11-24T17:43:17.095Z,-2.24
2022-11-24T17:46:05.957Z,-2.25
2022-11-24T17:48:54.487Z,-2.29
2022-11-24T17:51:42.468Z,-2.31
2022-11-24T17:54:46.620Z,-2.32
2022-11-24T17:57:35.281Z,-2.31
2022-11-24T18:00:23.364Z,-2.26
2022-11-24T18:03:11.527Z,-2.23
2022-11-24T18:06:07.061Z,-2.16
2022-11-24T18:08:57.535Z,-2.18
2022-11-24T18:11:45.442Z,-2.20
2022-11-24T18:14:33.671Z,-2.19
2022-11-24T18:17:21.711Z,-2.21
2022-11-24T18:20:09.915Z,-2.24
2022-11-24T18:23:05.661Z,-2.24
2022-11-24T18:26:03.906Z,-2.27
2022-11-24T18:30:01.857Z,-2.29
2022-11-24T18:32:38.913Z,-2.34
2022-11-24T18:35:27.093Z,-2.36
2022-11-24T18:38:15.154Z,-2.38
2022-11-24T18:41:04.340Z,-2.40
2022-11-24T18:43:52.560Z,-2.40
2022-11-24T18:46:40.334Z,-2.42
2022-11-24T18:49:38.168Z,-2.42
2022-11-24T18:52:25.975Z,-2.38
2022-11-24T18:55:16.010Z,-2.36
2022-11-24T18:58:33.772Z,-2.35
2022-11-24T19:01:25.099Z,-2.38
2022-11-24T19:04:20.224Z,-2.45
2022-11-24T19:07:09.073Z,-2.42
2022-11-24T19:10:21.963Z,-2.38
2022-11-24T19:13:51.183Z,-2.39
2022-11-24T19:18:05.564Z,-2.41
2022-11-24T19:20:56.681Z,-2.49
2022-11-24T19:23:44.795Z,-2.48
2022-11-24T19:26:36.721Z,-2.46
2022-11-24T19:29:24.678Z,-2.48
2022-11-24T19:32:13.087Z,-2.47
2022-11-24T19:35:04.886Z,-2.51
2022-11-24T19:37:57.746Z,-2.48
2022-11-24T19:40:51.065Z,-2.45
2022-11-24T19:43:39.727Z,-2.45
2022-11-24T19:46:42.356Z,-2.46
2022-11-24T19:49:34.176Z,-2.44
2022-11-24T19:52:27.477Z,-2.45
2022-11-24T19:55:18.565Z,-2.48
2022-11-24T19:58:09.999Z,-2.52
2022-11-24T20:01:16.752Z,-2.56
2022-11-24T20:04:09.475Z,-2.56
2022-11-24T20:06:57.089Z,-2.57
2022-11-24T20:09:44.686Z,-2.59
2022-11-24T20:12:33.283Z,-2.60
2022-11-24T20:15:20.927Z,-2.58
2022-11-24T20:18:08.643Z,-2.61
2022-11-24T20:21:05.522Z,-2.61
2022-11-24T20:23:55.860Z,-2.64
2022-11-24T20:26:46.946Z,-2.63
2022-11-24T20:29:34.611Z,-2.66
2022-11-24T20:32:22.255Z,-2.67
2022-11-24T20:35:14.988Z,-2.64
2022-11-24T20:38:05.579Z,-2.68
2022-11-24T20:40:53.600Z,-2.69
2022-11-24T20:43:42.771Z,-2.64
2022-11-24T20:46:32.358Z,-2.64
2022-11-24T20:49:21.895Z,-2.62
2022-11-24T20:52:09.555Z,-2.60
2022-11-24T20:54:58.331Z,-2.58
2022-11-24T20:57:45.936Z,-2.60
2022-11-24T21:00:33.542Z,-2.60
2022-11-24T21:03:21.155Z,-2.57
2022-11-24T21:06:09.700Z,-2.55
2022-11-24T21:09:03.414Z,-2.51
2022-11-24T21:11:51.713Z,-2.51
2022-11-24T21:14:39.767Z,-2.46
2022-11-24T21:17:27.613Z,-2.45
2022-11-24T21:20:15.448Z,-2.53
2022-11-24T21:23:03.825Z,-2.57
2022-11-24T21:25:51.432Z,-2.59
2022-11-24T21:28:39.137Z,-2.57
2022-11-24T21:31:26.750Z,-2.55
2022-11-24T21:34:16.238Z,-2.50
2022-11-24T21:37:03.892Z,-2.47
2022-11-24T21:39:51.553Z,-2.44
2022-11-24T21:42:39.098Z,-2.43
2022-11-24T21:45:29.209Z,-2.42
2022-11-24T21:48:16.769Z,-2.44
2022-11-24T21:51:07.077Z,-2.42
2022-11-24T21:53:54.642Z,-2.45
2022-11-24T21:56:42.177Z,-2.50
2022-11-24T21:59:29.812Z,-2.52
2022-11-24T22:02:17.467Z,-2.53
2022-11-24T22:05:05.475Z,-2.55
2022-11-24T22:07:53.180Z,-2.60
2022-11-24T22:10:40.825Z,-2.62
2022-11-24T22:13:28.563Z,-2.64
2022-11-24T22:16:24.088Z,-2.62
2022-11-24T22:19:11.922Z,-2.59
2022-11-24T22:21:59.585Z,-2.57
2022-11-24T22:24:47.234Z,-2.55
2022-11-24T22:27:34.815Z,-2.55
2022-11-24T22:30:22.851Z,-2.54
2022-11-24T22:33:10.475Z,-2.50
2022-11-24T22:35:59.735Z,-2.47
2022-11-24T22:38:48.397Z,-2.45
2022-11-24T22:41:36.117Z,-2.45
2022-11-24T22:44:23.688Z,-2.45
2022-11-24T22:47:11.307Z,-2.43
2022-11-24T22:49:58.993Z,-2.42
2022-11-24T22:52:46.608Z,-2.41
2022-11-24T22:55:35.541Z,-2.45
2022-11-24T22:58:23.173Z,-2.50
2022-11-24T23:01:15.034Z,-2.56
2022-11-24T23:04:03.899Z,-2.66
2022-11-24T23:06:51.863Z,-2.72
2022-11-24T23:09:39.509Z,-2.80
2022-11-24T23:12:27.127Z,-2.86
2022-11-24T23:15:14.926Z,-2.88
2022-11-24T23:18:02.657Z,-2.86
2022-11-24T23:20:50.258Z,-2.85
2022-11-24T23:23:37.849Z,-2.81
2022-11-24T23:26:34.510Z,-2.77
2022-11-24T23:29:21.948Z,-2.81
2022-11-24T23:32:09.580Z,-2.85
2022-11-24T23:34:57.257Z,-2.90
2022-11-24T23:38:06.644Z,-2.93
2022-11-24T23:40:55.700Z,-2.95
2022-11-24T23:43:43.868Z,-2.92
2022-11-24T23:46:31.538Z,-2.94
2022-11-24T23:49:19.219Z,-2.94
2022-11-24T23:52:07.024Z,-2.94
2022-11-24T23:54:54.645Z,-2.91
2022-11-24T23:57:42.247Z,-2.89
